Time;durP1;ratioP1;P1;durP2;ratioP2;P2;SDS_P1;SDS_P2;PMS_P1;PMS_P2;Temp;Humidity;BMP_temperature;BMP_pressure;BME280_temperature;BME280_humidity;BME280_pressure;Samples;Min_cycle;Max_cycle;Signal;HPM_P1;HPM_P2
2023/05/11 00:01:05;;;;;;;;;;;11.20;99.90;;;;;;5061584;28;20033;-65
2023/05/11 00:03:31;;;;;;;18.38;9.90;;;11.20;99.90;;;;;;5061496;28;20348;-65
2023/05/11 00:05:57;;;;;;;26.05;11.40;;;11.20;99.90;;;;;;5072545;28;20054;-65
2023/05/11 00:08:22;;;;;;;;;;;11.10;99.90;;;;;;5071292;28;20040;-65
2023/05/11 00:10:48;;;;;;;16.45;9.48;;;11.10;99.90;;;;;;5071182;28;19969;-65
2023/05/11 00:13:14;;;;;;;;;;;11.00;99.90;;;;;;5075641;28;20510;-65
2023/05/11 00:15:40;;;;;;;16.00;9.48;;;11.00;99.90;;;;;;5083765;28;19972;-65
2023/05/11 00:18:06;;;;;;;19.80;10.13;;;10.90;99.90;;;;;;5061614;28;20041;-65
2023/05/11 00:20:32;;;;;;;;;;;11.00;99.90;;;;;;5048109;28;20624;-65
2023/05/11 00:22:57;;;;;;;17.20;8.57;;;11.00;99.90;;;;;;5048592;28;19917;-65
2023/05/11 00:25:23;;;;;;;;;;;11.00;99.90;;;;;;5047497;28;20036;-65
2023/05/11 00:27:49;;;;;;;18.02;9.18;;;11.00;99.90;;;;;;5044153;28;19916;-65
2023/05/11 00:30:14;;;;;;;;;;;11.00;99.90;;;;;;5047582;28;20738;-65
2023/05/11 00:32:41;;;;;;;17.35;8.25;;;11.00;99.90;;;;;;5045089;28;20297;-65
2023/05/11 00:35:07;;;;;;;15.95;9.15;;;11.00;99.90;;;;;;5044771;28;20495;-65
2023/05/11 00:37:33;;;;;;;14.02;8.48;;;11.00;99.90;;;;;;5062799;28;20032;-65
2023/05/11 00:39:59;;;;;;;;;;;10.90;99.90;;;;;;5058535;28;20047;-65
2023/05/11 00:42:24;;;;;;;14.90;8.82;;;10.90;99.90;;;;;;5051722;28;19917;-65
2023/05/11 00:44:50;;;;;;;;;;;10.90;99.90;;;;;;5045940;28;20498;-65
2023/05/11 00:47:16;;;;;;;14.82;8.63;;;10.90;99.90;;;;;;5046601;28;19921;-65
2023/05/11 00:49:41;;;;;;;;;;;10.90;99.90;;;;;;5061617;28;20041;-65
2023/05/11 00:52:07;;;;;;;16.52;8.10;;;10.80;99.90;;;;;;5044593;28;19916;-65
2023/05/11 00:54:34;;;;;;;;;;;10.80;99.90;;;;;;5054859;28;20041;-65
2023/05/11 00:57:00;;;;;;;13.75;8.52;;;10.80;99.90;;;;;;5043114;28;19924;-65
2023/05/11 00:59:26;;;;;;;17.33;10.05;;;10.70;99.90;;;;;;5043877;28;20044;-65
2023/05/11 01:01:52;;;;;;;19.63;10.20;;;10.60;99.90;;;;;;5043237;28;20049;-65
2023/05/11 01:04:18;;;;;;;;;;;10.70;99.90;;;;;;5040258;28;20140;-65
2023/05/11 01:07:02;;;;;;;20.88;10.50;;;10.70;99.90;;;;;;5043690;28;20007;-65
2023/05/11 01:09:43;;;;;;;18.83;9.60;;;10.70;99.90;;;;;;5052781;28;20052;-65
2023/05/11 01:12:21;;;;;;;14.70;10.00;;;10.70;99.90;;;;;;5052562;28;20041;-65
2023/05/11 01:15:16;;;;;;;26.73;10.40;;;10.70;99.90;;;;;;5063540;28;20071;-65
2023/05/11 01:17:44;;;;;;;22.10;9.20;;;10.70;99.90;;;;;;5057270;28;20157;-65
2023/05/11 01:20:16;;;;;;;15.95;10.38;;;10.70;99.90;;;;;;5036584;28;20051;-66
2023/05/11 01:23:29;;;;;;;17.08;9.32;;;10.70;99.90;;;;;;5044758;28;20052;-66
2023/05/11 01:26:21;;;;;;;17.45;8.68;;;10.80;99.90;;;;;;5016144;28;20131;-65
2023/05/11 01:28:52;;;;;;;17.02;10.10;;;10.80;99.90;;;;;;5039265;28;20124;-65
2023/05/11 01:31:19;;;;;;;17.83;10.55;;;10.80;99.90;;;;;;5043416;28;20053;-65
2023/05/11 01:34:09;;;;;;;18.25;9.80;;;10.80;99.90;;;;;;5044338;28;20045;-65
2023/05/11 01:36:41;;;;;;;16.08;9.65;;;10.80;99.90;;;;;;5044762;28;20114;-65
2023/05/11 01:39:09;;;;;;;15.93;9.75;;;10.80;99.90;;;;;;5054679;28;20036;-65
2023/05/11 01:41:38;;;;;;;22.92;11.38;;;10.80;99.90;;;;;;5055489;28;20049;-65
2023/05/11 01:44:08;;;;;;;24.92;10.55;;;10.80;99.90;;;;;;5047438;28;20719;-65
2023/05/11 01:46:34;;;;;;;20.50;10.35;;;10.80;99.90;;;;;;5044292;28;20049;-65
2023/05/11 01:49:01;;;;;;;;;;;10.90;99.90;;;;;;5052128;28;20119;-65
2023/05/11 01:51:30;;;;;;;16.05;9.80;;;10.90;99.90;;;;;;5049603;28;19974;-65
2023/05/11 01:53:58;;;;;;;18.00;10.60;;;10.90;99.90;;;;;;5044178;28;20071;-66
2023/05/11 01:56:25;;;;;;;16.35;9.50;;;10.90;99.90;;;;;;5044847;28;20049;-65
2023/05/11 01:58:54;;;;;;;19.02;9.85;;;10.90;99.90;;;;;;5043585;28;20051;-65
2023/05/11 02:01:20;;;;;;;17.05;9.27;;;10.90;99.90;;;;;;5036822;28;20040;-65
2023/05/11 02:03:46;;;;;;;18.08;9.82;;;10.90;99.90;;;;;;5044611;28;20055;-65
2023/05/11 02:06:14;;;;;;;16.30;10.40;;;10.90;99.90;;;;;;5049005;28;20080;-65
2023/05/11 02:08:40;;;;;;;20.13;9.50;;;10.90;99.90;;;;;;5049838;28;20519;-65
2023/05/11 02:11:09;;;;;;;18.92;9.30;;;10.90;99.90;;;;;;5051364;28;20041;-65
2023/05/11 02:13:36;;;;;;;22.58;9.85;;;10.90;99.90;;;;;;5042065;28;20044;-65
2023/05/11 02:16:04;;;;;;;16.73;9.48;;;10.90;99.90;;;;;;5063896;28;20067;-65
2023/05/11 02:18:31;;;;;;;17.75;9.63;;;10.90;99.90;;;;;;5057866;28;20041;-65
2023/05/11 02:20:59;;;;;;;20.42;10.25;;;10.80;99.90;;;;;;5042758;28;20049;-65
2023/05/11 02:23:26;;;;;;;16.33;8.82;;;10.70;99.90;;;;;;5039700;28;20774;-65
2023/05/11 02:25:53;;;;;;;18.05;9.65;;;10.80;99.90;;;;;;5059095;28;20116;-65
2023/05/11 02:28:19;;;;;;;23.13;9.88;;;10.70;99.90;;;;;;5050282;28;20037;-64
2023/05/11 02:30:47;;;;;;;16.40;9.73;;;10.80;99.90;;;;;;5042804;28;20832;-65
2023/05/11 02:33:38;;;;;;;19.02;10.35;;;10.70;99.90;;;;;;5044080;28;20493;-65
2023/05/11 02:36:05;;;;;;;17.88;9.88;;;10.80;99.90;;;;;;5043086;28;20060;-65
2023/05/11 02:38:35;;;;;;;19.88;9.75;;;10.80;99.90;;;;;;5051745;28;20536;-65
2023/05/11 02:41:10;;;;;;;16.25;9.35;;;10.80;99.90;;;;;;5049820;28;20044;-65
2023/05/11 02:43:42;;;;;;;18.08;9.07;;;10.80;99.90;;;;;;5042405;28;20127;-65
2023/05/11 02:46:16;;;;;;;16.17;9.43;;;10.70;99.90;;;;;;5043349;28;20033;-65
2023/05/11 02:48:46;;;;;;;16.40;8.63;;;10.70;99.90;;;;;;5044306;28;20048;-65
2023/05/11 02:51:14;;;;;;;19.95;9.45;;;10.70;99.90;;;;;;5058168;28;20041;-64
2023/05/11 02:53:42;;;;;;;30.92;9.85;;;10.70;99.90;;;;;;5043796;28;20045;-64
2023/05/11 02:56:08;;;;;;;18.40;9.95;;;10.70;99.90;;;;;;5059463;28;20390;-65
2023/05/11 02:58:34;;;;;;;;;;;10.70;99.90;;;;;;5056453;28;20091;-65
2023/05/11 03:01:00;;;;;;;14.95;9.05;;;10.70;99.90;;;;;;5052594;28;19997;-65
2023/05/11 03:03:26;;;;;;;;;;;10.80;99.90;;;;;;5064689;28;20090;-65
2023/05/11 03:05:52;;;;;;;13.02;8.68;;;10.80;99.90;;;;;;5059578;28;19920;-65
2023/05/11 03:08:18;;;;;;;;;;;10.80;99.90;;;;;;5064066;28;20028;-64
2023/05/11 03:10:45;;;;;;;14.32;8.93;;;10.70;99.90;;;;;;5063249;28;20635;-64
2023/05/11 03:13:11;;;;;;;18.67;7.90;;;10.70;99.90;;;;;;5062796;28;20523;-64
2023/05/11 03:15:37;;;;;;;;;;;10.80;99.90;;;;;;5063602;28;20045;-64
2023/05/11 03:18:05;;;;;;;20.60;10.23;;;10.80;99.90;;;;;;5056715;28;20019;-65
2023/05/11 03:20:34;;;;;;;17.00;9.05;;;10.80;99.90;;;;;;5058480;28;20046;-65
2023/05/11 03:23:00;;;;;;;15.15;9.00;;;10.80;99.90;;;;;;5058600;28;20093;-64
2023/05/11 03:25:27;;;;;;;;;;;10.80;99.90;;;;;;5069656;28;20052;-64
2023/05/11 03:27:54;;;;;;;;;;;10.80;99.90;;;;;;5052677;28;19927;-65
2023/05/11 03:30:20;;;;;;;15.13;9.20;;;10.80;99.90;;;;;;5050632;28;19943;-65
2023/05/11 03:32:46;;;;;;;11.48;7.93;;;10.80;99.90;;;;;;5054941;28;20040;-64
2023/05/11 03:35:12;;;;;;;;;;;10.80;99.90;;;;;;5067578;28;20059;-65
2023/05/11 03:37:38;;;;;;;24.35;9.27;;;10.80;99.90;;;;;;5064896;28;19943;-65
2023/05/11 03:40:06;;;;;;;20.00;11.02;;;10.80;99.90;;;;;;5075402;28;20040;-65
2023/05/11 03:42:33;;;;;;;19.75;10.02;;;10.80;99.90;;;;;;5067775;28;20044;-64
2023/05/11 03:45:00;;;;;;;14.05;9.18;;;10.80;99.90;;;;;;5073540;28;20036;-64
2023/05/11 03:47:27;;;;;;;15.95;10.30;;;10.70;99.90;;;;;;5061875;28;20079;-65
2023/05/11 03:49:55;;;;;;;15.48;9.55;;;10.70;99.90;;;;;;5063962;28;20098;-65
2023/05/11 03:52:21;;;;;;;13.02;7.90;;;10.80;99.90;;;;;;5062276;28;20044;-65
2023/05/11 03:54:47;;;;;;;14.63;8.95;;;10.80;99.90;;;;;;5067140;28;20040;-64
2023/05/11 03:57:13;;;;;;;;;;;10.80;99.90;;;;;;5052141;28;20175;-65
2023/05/11 03:59:39;;;;;;;12.73;8.57;;;10.80;99.90;;;;;;5053516;28;20548;-65
2023/05/11 04:02:05;;;;;;;;;;;10.80;99.90;;;;;;5053386;28;20040;-65
2023/05/11 04:04:31;;;;;;;13.80;8.55;;;10.80;99.90;;;;;;5047344;28;20025;-65
2023/05/11 04:06:59;;;;;;;13.35;9.00;;;10.80;99.90;;;;;;5056806;28;20526;-65
2023/05/11 04:09:25;;;;;;;12.88;8.73;;;10.80;99.90;;;;;;5063240;28;20047;-65
2023/05/11 04:11:51;;;;;;;;;;;10.80;99.90;;;;;;5063935;28;20040;-65
2023/05/11 04:14:17;;;;;;;14.73;9.20;;;10.70;99.90;;;;;;5063816;28;19916;-66
2023/05/11 04:16:43;;;;;;;;;;;10.70;99.90;;;;;;5057077;28;20501;-65
2023/05/11 04:19:09;;;;;;;23.42;9.52;;;10.80;99.90;;;;;;5049994;28;19917;-65
2023/05/11 04:21:35;;;;;;;14.38;9.43;;;10.70;99.90;;;;;;5056400;28;20128;-66
2023/05/11 04:24:00;;;;;;;;;;;10.70;99.90;;;;;;5060640;28;20041;-66
2023/05/11 04:26:26;;;;;;;15.57;7.97;;;10.80;99.90;;;;;;5090960;28;19970;-66
2023/05/11 04:28:52;;;;;;;;;;;10.80;99.90;;;;;;5045620;28;20147;-65
2023/05/11 04:31:18;;;;;;;14.23;8.82;;;10.80;99.90;;;;;;5057662;28;20017;-66
2023/05/11 04:33:43;;;;;;;;;;;10.90;99.90;;;;;;5065064;28;20040;-65
2023/05/11 04:36:09;;;;;;;11.77;7.88;;;10.90;99.90;;;;;;5053252;28;20031;-65
2023/05/11 04:38:35;;;;;;;17.40;8.52;;;10.90;99.90;;;;;;5064972;28;20032;-66
2023/05/11 04:41:03;;;;;;;;;;;10.90;99.90;;;;;;5054714;28;20725;-66
2023/05/11 04:43:29;;;;;;;11.23;7.03;;;11.00;99.90;;;;;;5064273;28;19920;-65
2023/05/11 04:45:55;;;;;;;;;;;11.00;99.90;;;;;;5064328;28;20051;-65
2023/05/11 04:48:21;;;;;;;10.63;7.53;;;11.00;99.90;;;;;;5052187;28;19921;-65
2023/05/11 04:50:46;;;;;;;;;;;11.10;99.90;;;;;;5046821;28;20048;-65
2023/05/11 04:53:12;;;;;;;17.73;9.40;;;11.10;99.90;;;;;;5060658;28;19916;-65
2023/05/11 04:55:38;;;;;;;15.63;8.90;;;11.10;99.90;;;;;;5065581;28;20079;-65
2023/05/11 04:58:04;;;;;;;;;;;11.10;99.90;;;;;;5063182;28;20794;-65
2023/05/11 05:00:29;;;;;;;13.55;7.85;;;11.10;99.90;;;;;;5064365;28;19916;-65
2023/05/11 05:02:55;;;;;;;;;;;11.10;99.90;;;;;;5055930;28;20127;-65
2023/05/11 05:05:20;;;;;;;11.57;7.63;;;11.20;99.90;;;;;;5053564;28;20035;-65
2023/05/11 05:07:46;;;;;;;;;;;11.20;99.90;;;;;;5061615;28;20399;-65
2023/05/11 05:10:12;;;;;;;15.90;8.65;;;11.20;99.90;;;;;;5060460;28;20375;-65
2023/05/11 05:12:37;;;;;;;;;;;11.30;99.90;;;;;;5052157;28;20516;-65
2023/05/11 05:15:04;;;;;;;13.45;8.77;;;11.40;99.90;;;;;;5065904;28;20323;-64
2023/05/11 05:17:30;;;;;;;14.63;9.60;;;11.40;99.90;;;;;;5059631;28;20095;-65
2023/05/11 05:19:56;;;;;;;15.25;9.52;;;11.50;99.90;;;;;;5065905;28;20086;-65
2023/05/11 05:22:23;;;;;;;16.10;10.30;;;11.40;99.90;;;;;;5055419;28;20051;-65
2023/05/11 05:24:49;;;;;;;16.25;9.88;;;11.50;99.90;;;;;;5064172;28;20178;-65
2023/05/11 05:27:14;;;;;;;;;;;11.50;99.90;;;;;;5065457;28;20152;-68
2023/05/11 05:29:42;;;;;;;12.90;8.38;;;11.50;99.90;;;;;;5067055;28;19920;-68
2023/05/11 05:32:08;;;;;;;13.90;9.45;;;11.60;99.90;;;;;;5061106;28;20036;-64
2023/05/11 05:34:33;;;;;;;;;;;11.60;99.90;;;;;;5091045;28;20063;-64
2023/05/11 05:36:59;;;;;;;14.25;8.90;;;11.60;99.90;;;;;;5056834;28;19917;-69
2023/05/11 05:39:25;;;;;;;20.80;10.45;;;11.60;99.90;;;;;;5059723;28;20473;-64
2023/05/11 05:41:51;;;;;;;18.52;9.63;;;11.70;99.90;;;;;;5081810;28;20032;-66
2023/05/11 05:44:17;;;;;;;15.63;10.30;;;11.60;99.90;;;;;;5065694;28;20107;-66
2023/05/11 05:46:42;;;;;;;;;;;11.60;99.90;;;;;;5056034;28;20115;-64
2023/05/11 05:49:08;;;;;;;18.67;10.10;;;11.70;99.90;;;;;;5066711;28;19924;-65
2023/05/11 05:51:33;;;;;;;;;;;11.60;99.90;;;;;;5065641;28;20043;-65
2023/05/11 05:53:59;;;;;;;15.50;9.52;;;11.60;99.90;;;;;;5065031;28;19920;-65
2023/05/11 05:56:25;;;;;;;;;;;11.70;99.90;;;;;;5067996;28;20378;-66
2023/05/11 05:58:51;;;;;;;22.43;10.93;;;11.70;99.90;;;;;;5054189;28;19924;-65
2023/05/11 06:01:17;;;;;;;;;;;11.70;99.90;;;;;;5045066;28;20271;-65
2023/05/11 06:03:44;;;;;;;16.90;9.13;;;11.80;99.90;;;;;;5055438;28;20341;-65
2023/05/11 06:06:10;;;;;;;15.75;10.40;;;11.90;99.90;;;;;;5064859;28;20149;-66
2023/05/11 06:08:35;;;;;;;;;;;11.90;99.90;;;;;;5064282;28;20080;-64
2023/05/11 06:11:01;;;;;;;21.63;10.75;;;12.00;99.90;;;;;;5054272;28;19935;-65
2023/05/11 06:13:26;;;;;;;25.75;14.40;;;12.00;99.90;;;;;;5063202;28;20136;-64
2023/05/11 06:15:52;;;;;;;;;;;12.00;99.90;;;;;;5056496;28;20182;-66
2023/05/11 06:18:17;;;;;;;28.35;15.55;;;11.90;99.90;;;;;;5064582;28;20573;-66
2023/05/11 06:20:43;;;;;;;;;;;11.90;99.90;;;;;;5063945;28;20131;-66
2023/05/11 06:23:09;;;;;;;23.98;14.05;;;11.90;99.90;;;;;;5061333;28;19920;-65
2023/05/11 06:25:34;;;;;;;;;;;11.90;99.90;;;;;;5061940;28;20476;-65
2023/05/11 06:28:00;;;;;;;28.15;14.30;;;11.90;99.90;;;;;;5053975;28;20016;-64
2023/05/11 06:30:26;;;;;;;27.13;16.58;;;11.90;99.90;;;;;;5049285;28;20037;-65
2023/05/11 06:32:52;;;;;;;;;;;11.90;99.90;;;;;;5044762;28;20473;-64
2023/05/11 06:35:17;;;;;;;31.95;15.80;;;12.00;99.90;;;;;;5057295;28;19917;-64
2023/05/11 06:37:43;;;;;;;;;;;11.90;99.90;;;;;;5049363;28;20354;-64
2023/05/11 06:40:09;;;;;;;23.55;13.68;;;11.90;99.90;;;;;;5063035;28;20424;-65
2023/05/11 06:42:34;;;;;;;;;;;12.00;99.90;;;;;;5071551;28;20062;-65
2023/05/11 06:45:00;;;;;;;21.45;13.68;;;12.00;99.90;;;;;;5067077;28;19966;-64
2023/05/11 06:47:26;;;;;;;;;;;12.00;99.90;;;;;;5056630;28;20036;-64
2023/05/11 06:49:51;;;;;;;54.13;34.70;;;12.00;99.90;;;;;;5063696;28;19920;-64
2023/05/11 06:52:17;;;;;;;34.47;19.45;;;12.10;99.90;;;;;;5063019;28;20741;-64
2023/05/11 06:54:43;;;;;;;;;;;12.20;99.90;;;;;;5061075;28;20040;-65
2023/05/11 06:57:08;;;;;;;19.92;13.43;;;12.20;99.90;;;;;;5063669;28;19916;-64
2023/05/11 06:59:34;;;;;;;23.98;14.00;;;12.30;99.90;;;;;;5052194;28;20087;-64
2023/05/11 07:02:00;;;;;;;23.58;14.48;;;12.30;99.90;;;;;;5047571;28;20255;-64
2023/05/11 07:04:25;;;;;;;;;;;12.20;99.90;;;;;;5055777;28;20047;-64
2023/05/11 07:06:51;;;;;;;23.40;13.57;;;12.20;99.90;;;;;;5064180;28;20395;-64
2023/05/11 07:09:16;;;;;;;;;;;12.30;99.90;;;;;;5063974;28;20024;-64
2023/05/11 07:11:42;;;;;;;21.35;12.93;;;12.30;99.90;;;;;;5055236;28;19922;-64
2023/05/11 07:14:08;;;;;;;21.13;13.25;;;12.30;99.90;;;;;;5059805;28;20033;-64
2023/05/11 07:16:37;;;;;;;20.55;13.13;;;12.30;99.90;;;;;;5063388;28;20051;-65
2023/05/11 07:19:04;;;;;;;26.25;13.52;;;12.40;99.90;;;;;;5054959;28;20051;-64
2023/05/11 07:21:31;;;;;;;23.80;13.98;;;12.30;99.90;;;;;;5064528;28;20041;-65
2023/05/11 07:23:57;;;;;;;23.45;14.32;;;12.40;99.90;;;;;;5064160;28;20044;-65
2023/05/11 07:26:23;;;;;;;22.40;13.82;;;12.40;99.90;;;;;;5064396;28;20047;-65
2023/05/11 07:28:48;;;;;;;;;;;12.40;99.90;;;;;;5068214;28;20048;-65
2023/05/11 07:31:14;;;;;;;24.98;13.82;;;12.40;99.90;;;;;;5046994;28;20626;-65
2023/05/11 07:33:39;;;;;;;;;;;12.50;99.90;;;;;;5048662;28;20041;-65
2023/05/11 07:36:06;;;;;;;20.40;12.95;;;12.50;99.90;;;;;;5066679;28;19995;-64
2023/05/11 07:38:32;;;;;;;20.92;12.90;;;12.50;99.90;;;;;;5067923;28;20571;-64
2023/05/11 07:40:57;;;;;;;;;;;12.50;99.90;;;;;;5056054;28;20068;-64
2023/05/11 07:43:23;;;;;;;23.17;13.45;;;12.50;99.90;;;;;;5054910;28;19916;-65
2023/05/11 07:45:48;;;;;;;18.02;12.55;;;12.40;99.90;;;;;;5064838;28;20037;-64
2023/05/11 07:48:14;;;;;;;25.77;15.48;;;12.50;99.90;;;;;;5068068;28;20090;-64
2023/05/11 07:50:41;;;;;;;;;;;12.40;99.90;;;;;;5068188;28;20094;-64
2023/05/11 07:53:07;;;;;;;24.15;13.75;;;12.40;99.90;;;;;;5068935;28;19920;-64
2023/05/11 07:55:32;;;;;;;;;;;12.40;99.90;;;;;;5066336;28;20132;-64
2023/05/11 07:57:58;;;;;;;25.77;13.85;;;12.30;99.90;;;;;;5068487;28;19924;-65
2023/05/11 08:00:24;;;;;;;;;;;12.30;99.90;;;;;;5058248;28;20036;-64
2023/05/11 08:02:49;;;;;;;24.75;14.57;;;12.30;99.90;;;;;;5047217;28;19921;-64
2023/05/11 08:05:16;;;;;;;23.35;14.57;;;12.30;99.90;;;;;;5054609;28;20343;-64
2023/05/11 08:07:42;;;;;;;25.85;15.02;;;12.50;99.90;;;;;;5067701;28;20109;-64
2023/05/11 08:10:08;;;;;;;;;;;12.60;99.90;;;;;;5066744;28;20404;-65
2023/05/11 08:12:34;;;;;;;23.67;14.25;;;12.70;99.90;;;;;;5058687;28;19935;-64
2023/05/11 08:15:00;;;;;;;21.88;13.95;;;12.80;99.90;;;;;;5046833;28;20091;-64
2023/05/11 08:17:25;;;;;;;;;;;12.90;99.90;;;;;;5056620;28;20044;-64
2023/05/11 08:19:51;;;;;;;21.55;13.48;;;12.90;99.90;;;;;;5066447;28;20090;-65
2023/05/11 08:22:16;;;;;;;;;;;12.90;99.90;;;;;;5048182;28;20040;-64
2023/05/11 08:24:42;;;;;;;18.23;12.25;;;12.90;99.90;;;;;;5052492;28;19916;-64
2023/05/11 08:27:08;;;;;;;;;;;13.00;99.90;;;;;;5067777;28;20235;-64
2023/05/11 08:29:33;;;;;;;24.02;12.73;;;13.10;99.90;;;;;;5055368;28;19916;-64
2023/05/11 08:31:59;;;;;;;;;;;13.10;99.90;;;;;;5063349;28;20101;-64
2023/05/11 08:34:25;;;;;;;20.35;13.13;;;13.20;99.90;;;;;;5066988;28;20437;-65
2023/05/11 08:36:52;;;;;;;21.25;13.93;;;13.10;99.90;;;;;;5094213;28;20048;-64
2023/05/11 08:39:17;;;;;;;20.88;12.45;;;13.10;99.90;;;;;;5066077;28;20041;-64
2023/05/11 08:41:45;;;;;;;;;;;13.10;99.90;;;;;;5052106;28;20451;-65
2023/05/11 08:44:13;;;;;;;19.85;12.90;;;13.10;99.90;;;;;;5058831;28;19920;-64
2023/05/11 08:46:40;;;;;;;20.65;14.35;;;13.10;99.90;;;;;;5059929;28;20057;-64
2023/05/11 08:49:06;;;;;;;22.80;14.02;;;13.00;99.90;;;;;;5047575;28;20098;-64
2023/05/11 08:51:32;;;;;;;20.67;13.68;;;13.00;99.90;;;;;;5056048;28;20899;-64
2023/05/11 08:53:58;;;;;;;;;;;13.00;99.90;;;;;;5066210;28;20041;-64
2023/05/11 08:56:26;;;;;;;21.85;13.35;;;13.00;99.90;;;;;;5055180;28;20285;-64
2023/05/11 08:58:54;;;;;;;22.02;13.38;;;13.00;99.90;;;;;;5047271;28;20546;-64
2023/05/11 09:01:22;;;;;;;21.30;13.35;;;13.00;99.90;;;;;;5053093;28;20127;-64
2023/05/11 09:03:48;;;;;;;19.60;12.52;;;13.10;99.90;;;;;;5063897;28;20041;-64
2023/05/11 09:06:15;;;;;;;22.80;14.52;;;13.10;99.90;;;;;;5059391;28;20044;-64
2023/05/11 09:08:42;;;;;;;23.52;13.43;;;13.10;99.90;;;;;;5065815;28;20063;-64
2023/05/11 09:11:09;;;;;;;23.85;13.43;;;13.10;99.90;;;;;;5063185;28;20040;-64
2023/05/11 09:13:35;;;;;;;22.92;13.88;;;13.00;99.90;;;;;;5065908;28;20036;-64
2023/05/11 09:16:01;;;;;;;;;;;13.00;99.90;;;;;;5058580;28;20055;-64
2023/05/11 09:18:27;;;;;;;20.70;12.15;;;13.10;99.90;;;;;;5057453;28;19974;-64
2023/05/11 09:20:52;;;;;;;;;;;13.30;99.90;;;;;;5065943;28;20104;-64
2023/05/11 09:23:25;;;;;;;21.27;11.93;;;13.40;99.90;;;;;;5098263;28;20657;-64
2023/05/11 09:25:51;;;;;;;23.52;12.30;;;13.50;99.90;;;;;;5064628;28;20045;-64
2023/05/11 09:28:23;;;;;;;;;;;13.60;99.90;;;;;;5045613;28;20094;-64
2023/05/11 09:30:49;;;;;;;18.05;11.75;;;13.60;99.90;;;;;;5044619;28;19917;-64
2023/05/11 09:33:20;;;;;;;;;;;13.60;99.90;;;;;;5066145;28;20037;-64
2023/05/11 09:35:46;;;;;;;19.45;11.35;;;13.50;99.90;;;;;;5065996;28;20292;-64
2023/05/11 09:38:12;;;;;;;;;;;13.60;99.90;;;;;;5052646;28;20055;-64
2023/05/11 09:40:41;;;;;;;21.10;10.80;;;13.70;99.90;;;;;;5062320;28;20342;-63
2023/05/11 09:43:25;;;;;;;19.98;11.98;;;13.60;99.90;;;;;;5051556;28;20565;-64
2023/05/11 09:45:52;;;;;;;17.75;12.27;;;13.60;99.90;;;;;;5062432;28;20579;-64
2023/05/11 09:48:18;;;;;;;18.20;10.93;;;13.60;99.90;;;;;;5047405;28;20036;-64
2023/05/11 09:50:43;;;;;;;;;;;13.60;99.90;;;;;;5045128;28;20037;-64
2023/05/11 09:53:09;;;;;;;15.52;10.55;;;13.70;99.90;;;;;;5061266;28;20015;-64
2023/05/11 09:55:35;;;;;;;16.90;11.30;;;13.70;99.90;;;;;;5064336;28;20091;-64
2023/05/11 09:58:02;;;;;;;;;;;13.70;99.90;;;;;;5052226;28;20386;-64
2023/05/11 10:00:27;;;;;;;18.65;11.43;;;13.70;99.90;;;;;;5044135;28;20402;-64
2023/05/11 10:03:00;;;;;;;;;;;13.80;99.90;;;;;;5057801;28;20037;-65
2023/05/11 10:05:26;;;;;;;17.02;10.63;;;13.80;99.90;;;;;;5064183;28;19986;-64
2023/05/11 10:08:02;;;;;;;;;;;13.70;99.90;;;;;;5056133;28;20149;-64
2023/05/11 10:10:30;;;;;;;17.75;10.80;;;13.90;99.90;;;;;;5058110;28;19951;-63
2023/05/11 10:13:01;;;;;;;17.58;11.55;;;14.10;99.90;;;;;;5054438;28;20032;-63
2023/05/11 10:15:29;;;;;;;17.70;11.63;;;14.10;99.90;;;;;;5057262;28;20080;-64
2023/05/11 10:17:57;;;;;;;16.45;10.55;;;14.20;99.90;;;;;;5051664;28;20539;-63
2023/05/11 10:20:23;;;;;;;18.20;11.18;;;14.20;99.90;;;;;;5051851;28;20170;-63
2023/05/11 10:22:54;;;;;;;18.73;10.48;;;14.20;99.90;;;;;;5061796;28;20048;-63
2023/05/11 10:25:24;;;;;;;17.27;11.13;;;14.20;99.90;;;;;;5045502;28;20044;-64
2023/05/11 10:27:51;;;;;;;20.08;10.00;;;13.90;99.90;;;;;;5057770;28;20049;-63
2023/05/11 10:30:17;;;;;;;15.07;9.82;;;13.90;99.90;;;;;;5060745;28;20052;-63
2023/05/11 10:32:47;;;;;;;16.27;10.13;;;13.90;99.90;;;;;;5061503;28;20040;-64
2023/05/11 10:35:13;;;;;;;17.23;11.15;;;14.00;99.90;;;;;;5062352;28;20081;-64
2023/05/11 10:37:41;;;;;;;19.48;11.85;;;13.80;99.90;;;;;;5059984;28;20136;-64
2023/05/11 10:40:07;;;;;;;21.80;11.93;;;13.80;99.90;;;;;;5061085;28;20273;-64
2023/05/11 10:43:01;;;;;;;17.08;11.93;;;13.70;99.90;;;;;;5053844;28;20033;-64
2023/05/11 10:45:50;;;;;;;15.38;10.50;;;13.80;99.90;;;;;;5056687;28;20893;-64
2023/05/11 10:48:48;;;;;;;17.30;10.93;;;13.70;99.90;;;;;;5080928;28;20037;-63
2023/05/11 10:51:13;;;;;;;18.85;11.25;;;13.60;99.90;;;;;;5043466;28;20390;-64
2023/05/11 10:53:54;;;;;;;17.65;11.07;;;13.60;99.90;;;;;;5054267;28;20051;-64
2023/05/11 10:56:48;;;;;;;16.40;10.65;;;13.70;99.90;;;;;;5064473;28;20523;-63
2023/05/11 10:59:24;;;;;;;14.52;9.20;;;13.80;99.90;;;;;;5048728;28;20044;-63
2023/05/11 11:01:57;;;;;;;;;;;13.70;99.90;;;;;;5057990;28;20085;-64
2023/05/11 11:04:23;;;;;;;15.20;10.27;;;13.80;99.90;;;;;;5047122;28;19916;-64
2023/05/11 11:07:03;;;;;;;;;;;13.90;99.90;;;;;;5064901;28;20052;-64
2023/05/11 11:10:05;;;;;;;15.98;10.30;;;13.80;99.90;;;;;;5063691;28;20320;-64
2023/05/11 11:12:33;;;;;;;16.98;10.73;;;13.90;99.90;;;;;;5055617;28;20075;-64
2023/05/11 11:15:06;;;;;;;16.45;10.07;;;13.90;99.90;;;;;;5053656;28;20416;-64
2023/05/11 11:17:34;;;;;;;17.27;10.05;;;14.00;99.90;;;;;;5064170;28;20040;-64
2023/05/11 11:20:07;;;;;;;16.92;10.48;;;14.10;99.90;;;;;;5055415;28;20067;-64
2023/05/11 11:22:37;;;;;;;15.57;10.45;;;14.20;99.90;;;;;;5047175;28;20074;-65
2023/05/11 11:25:07;;;;;;;17.15;9.23;;;14.30;99.90;;;;;;5096861;28;20116;-67
2023/05/11 11:27:39;;;;;;;13.05;9.07;;;14.20;99.90;;;;;;5096172;28;20136;-64
2023/05/11 11:30:25;;;;;;;12.35;9.65;;;14.20;99.90;;;;;;5057691;28;20050;-64
2023/05/11 11:33:15;;;;;;;14.80;9.40;;;14.30;99.90;;;;;;5066811;28;20052;-65
2023/05/11 11:35:40;;;;;;;15.38;9.30;;;14.30;99.90;;;;;;5075758;28;20046;-65
2023/05/11 11:38:07;;;;;;;;;;;14.40;99.90;;;;;;5079643;28;20036;-64
2023/05/11 11:40:43;;;;;;;19.13;11.60;;;14.40;99.90;;;;;;5055599;28;19921;-64
2023/05/11 11:43:19;;;;;;;;;;;14.20;99.90;;;;;;5063678;28;20121;-63
2023/05/11 11:46:03;;;;;;;17.75;10.73;;;14.10;99.90;;;;;;5055470;28;19974;-64
2023/05/11 11:48:41;;;;;;;22.85;12.35;;;14.00;99.90;;;;;;5060839;28;20041;-63
2023/05/11 11:51:09;;;;;;;20.73;12.38;;;13.90;99.90;;;;;;5046259;28;20108;-64
2023/05/11 11:53:40;;;;;;;19.58;12.38;;;13.90;99.90;;;;;;5046255;28;20056;-65
2023/05/11 11:56:27;;;;;;;19.63;13.02;;;14.00;99.90;;;;;;5088451;28;20049;-63
2023/05/11 11:58:57;;;;;;;22.23;12.27;;;14.00;99.90;;;;;;5054900;28;20741;-64
2023/05/11 12:01:28;;;;;;;17.77;12.60;;;14.00;99.90;;;;;;5054751;28;20508;-64
2023/05/11 12:04:03;;;;;;;22.33;12.02;;;14.10;99.90;;;;;;5057978;28;20029;-64
2023/05/11 12:06:36;;;;;;;20.10;13.13;;;14.30;99.90;;;;;;5066218;28;20120;-65
2023/05/11 12:09:03;;;;;;;18.25;12.82;;;14.30;99.90;;;;;;5061511;28;20037;-64
2023/05/11 12:11:29;;;;;;;18.83;12.35;;;14.50;99.90;;;;;;5058795;28;20449;-64
2023/05/11 12:13:55;;;;;;;;;;;14.60;99.90;;;;;;5062206;28;20032;-64
2023/05/11 12:16:21;;;;;;;19.77;13.05;;;14.70;99.90;;;;;;5050932;28;20356;-64
2023/05/11 12:18:56;;;;;;;;;;;14.70;99.90;;;;;;5059435;28;20044;-64
2023/05/11 12:21:26;;;;;;;20.63;13.13;;;14.60;99.90;;;;;;5067434;28;19923;-64
2023/05/11 12:23:53;;;;;;;18.42;11.90;;;14.60;99.90;;;;;;5045842;28;20101;-64
2023/05/11 12:26:20;;;;;;;16.58;11.25;;;14.50;99.90;;;;;;5047726;28;20041;-64
2023/05/11 12:28:49;;;;;;;15.18;10.52;;;14.50;99.90;;;;;;5062934;28;20051;-64
2023/05/11 12:31:17;;;;;;;18.92;11.00;;;14.60;99.90;;;;;;5045537;28;20037;-64
2023/05/11 12:33:50;;;;;;;17.63;11.50;;;14.60;99.90;;;;;;5051195;28;20059;-64
2023/05/11 12:36:17;;;;;;;19.83;12.57;;;14.60;99.90;;;;;;5062930;28;20040;-64
2023/05/11 12:38:47;;;;;;;19.50;12.07;;;14.60;99.90;;;;;;5061128;28;20036;-63
2023/05/11 12:41:21;;;;;;;17.00;11.75;;;14.60;99.90;;;;;;5060498;28;20052;-64
2023/05/11 12:43:48;;;;;;;20.95;13.85;;;14.50;99.90;;;;;;5065913;28;20029;-63
2023/05/11 12:46:15;;;;;;;20.77;13.23;;;14.60;99.90;;;;;;5085489;28;20041;-64
2023/05/11 12:48:41;;;;;;;21.02;12.98;;;14.40;99.90;;;;;;5049490;28;20133;-64
2023/05/11 12:51:07;;;;;;;;;;;14.40;99.90;;;;;;5063468;28;20076;-64
2023/05/11 12:53:39;;;;;;;34.45;14.25;;;14.50;99.90;;;;;;5065226;28;19920;-64
2023/05/11 12:56:06;;;;;;;23.85;13.00;;;14.40;99.90;;;;;;5062445;28;20423;-64
2023/05/11 12:58:35;;;;;;;;;;;14.40;99.90;;;;;;5066084;28;20451;-64
2023/05/11 13:01:01;;;;;;;17.58;10.60;;;14.40;99.90;;;;;;5050666;28;20007;-64